Main page
METAR-TAF:

METAR-TAF

Airports :

Inverness Airport

Inverness, Scotland

latitude: 57-32N, longitude: 004-03W, elevation: 9 m

Current weather observation

The report was made 43 minutes ago, at 07:20 UTC
Wind 9 kt from the Southwest
Temperature 0°C
Humidity 93%
Pressure 1013 hPa
Visibility 10 km or more
no clouds below 1500 m and no cumulonimbus

METAR: EGPE 200720Z 22009KT CAVOK 00/M01 Q1013

Time: 08:03 (08:03 UTC)

Forecast

The report was made 3 hours and 9 minutes ago, at 04:54 UTC
Forecast valid from 20 at 06 UTC to 20 at 15 UTC
Wind 7 kt from the Southwest
Visibility 10 km or more
Scattered clouds at a height of 4000 ft
Probability 40% :
Temporary
from 20 at 07 UTC to 20 at 10 UTC
Visibility: 6000 m
Broken clouds at a height of 1200 ft
rain

TAF: EGPE 200454Z 2006/2015 23007KT 9999 SCT040 PROB40 TEMPO 2007/2010 6000 RA BKN012

Weather observations and forecasts of more than 4000 airports (METAR and TAF reports).

The available stations are represented by yellow and red dots on the map.

Hover mouse over dot to see the name of the station.

Then click to see weather observations and forecasts.

To change the map : click on the green buttons with a black cross to zoom in, on the green button with a dash to zoom out, or on the green arrows for adjacent maps.


METAR-TAF: